Portada
METAR-TAF:

METAR-TAF

Aeropuertos :

Iranshahr, Irán

latitud: 27-12N, longitud: 060-42E, altitud: 591 m

Observación

El informe se hizo hace 1 hora y 25 minutos, a las 00:00 UTC
Viento 6 kt del norte
Temperatura 17°C
Humedad 42%
Presión 1013 hPa
Visibilidad 10 km o más
sin nubes por debajo de 1500 m y sin presencia de cumulonimbus.

METAR: OIZI 210000Z 36006KT CAVOK 17/04 Q1013

Hora: 04:55 (01:25 UTC)


TAF: falta

Observaciones y pronósticos meteorológicos de más de 4000 aeropuertos (mensajes METAR y TAF).

Los puntos amarillos y rojos representan las estaciones disponibles.

Ponga el ratón en el punto deseado para ver el nombre de la estación.

Haga clic para ver las observaciones y los pronósticos meteorológicos.

Para cambiar el mapa : haga clic en los botones verdes con una cruz de color negro para hacer un zoom, en el botón verde con un guión para alejar o en las flechas verdes para mapas adyacentes.


METAR-TAF: